createdAt,value
2023-03-11T00:00:22.453Z,18.38
2023-03-11T00:02:52.044Z,19.48
2023-03-11T00:05:28.315Z,20.52
2023-03-11T00:07:55.906Z,19.05
2023-03-11T00:10:30.318Z,17.33
2023-03-11T00:12:58.405Z,24.38
2023-03-11T00:15:25.928Z,18.33
2023-03-11T00:17:52.737Z,22.33
2023-03-11T00:20:22.895Z,20.23
2023-03-11T00:22:51.331Z,17.45
2023-03-11T00:25:19.136Z,20.10
2023-03-11T00:27:46.018Z,16.35
2023-03-11T00:30:13.983Z,25.33
2023-03-11T00:32:41.038Z,17.10
2023-03-11T00:35:09.067Z,15.60
2023-03-11T00:37:35.891Z,19.63
2023-03-11T00:40:02.913Z,19.88
2023-03-11T00:42:29.825Z,15.18
2023-03-11T00:44:57.033Z,14.80
2023-03-11T00:47:23.900Z,12.55
2023-03-11T00:49:50.676Z,19.37
2023-03-11T00:52:17.433Z,18.50
2023-03-11T00:54:46.163Z,16.52
2023-03-11T00:57:13.114Z,17.47
2023-03-11T00:59:39.871Z,22.03
2023-03-11T01:02:06.682Z,18.67
2023-03-11T01:04:33.657Z,14.77
2023-03-11T01:07:00.501Z,13.10
2023-03-11T01:09:27.384Z,15.13
2023-03-11T01:11:54.330Z,19.95
2023-03-11T01:14:21.322Z,19.52
2023-03-11T01:16:48.134Z,19.45
2023-03-11T01:19:15.971Z,15.02
2023-03-11T01:21:43.219Z,17.38
2023-03-11T01:24:10.088Z,12.57
2023-03-11T01:26:36.972Z,17.00
2023-03-11T01:29:04.084Z,17.58
2023-03-11T01:31:30.884Z,17.80
2023-03-11T01:33:57.707Z,16.00
2023-03-11T01:36:24.553Z,17.20
2023-03-11T01:38:51.383Z,15.23
2023-03-11T01:41:18.249Z,14.05
2023-03-11T01:43:45.089Z,15.00
2023-03-11T01:46:11.942Z,16.13
2023-03-11T01:48:38.930Z,16.48
2023-03-11T01:51:07.584Z,14.02
2023-03-11T01:53:35.522Z,16.38
2023-03-11T01:56:03.964Z,18.85
2023-03-11T01:58:35.625Z,19.80
2023-03-11T02:01:03.825Z,13.88
2023-03-11T02:03:34.353Z,15.00
2023-03-11T02:06:04.023Z,15.05
2023-03-11T02:08:34.130Z,12.95
2023-03-11T02:11:03.523Z,14.02
2023-03-11T02:13:31.745Z,15.35
2023-03-11T02:16:00.681Z,14.57
2023-03-11T02:18:27.709Z,15.55
2023-03-11T02:21:22.346Z,18.33
2023-03-11T02:24:22.517Z,18.55
2023-03-11T02:27:01.785Z,14.55
2023-03-11T02:29:30.192Z,14.20
2023-03-11T02:31:58.584Z,17.80
2023-03-11T02:34:27.373Z,16.05
2023-03-11T02:36:54.500Z,13.68
2023-03-11T02:39:40.260Z,18.48
2023-03-11T02:42:18.162Z,18.25
2023-03-11T02:44:48.377Z,15.80
2023-03-11T02:47:16.774Z,16.25
2023-03-11T02:49:43.852Z,17.13
2023-03-11T02:52:10.640Z,12.23
2023-03-11T02:54:37.422Z,21.70
2023-03-11T02:57:04.426Z,15.25
2023-03-11T02:59:31.219Z,12.80
2023-03-11T03:01:58.008Z,15.18
2023-03-11T03:04:24.834Z,15.30
2023-03-11T03:06:51.661Z,14.60
2023-03-11T03:09:18.452Z,12.93
2023-03-11T03:11:45.241Z,14.65
2023-03-11T03:14:12.136Z,11.88
2023-03-11T03:16:39.191Z,15.07
2023-03-11T03:19:06.062Z,12.93
2023-03-11T03:21:32.871Z,14.20
2023-03-11T03:23:59.649Z,15.90
2023-03-11T03:26:27.824Z,18.90
2023-03-11T03:28:54.634Z,15.85
2023-03-11T03:31:21.538Z,16.35
2023-03-11T03:33:48.347Z,14.93
2023-03-11T03:36:15.824Z,18.45
2023-03-11T03:38:42.815Z,13.15
2023-03-11T03:41:10.025Z,17.10
2023-03-11T03:43:36.811Z,12.85
2023-03-11T03:46:05.607Z,14.50
2023-03-11T03:48:32.859Z,14.63
2023-03-11T03:51:08.894Z,13.85
2023-03-11T03:53:37.104Z,15.07
2023-03-11T03:56:11.888Z,19.05
2023-03-11T03:58:39.041Z,15.40
2023-03-11T04:01:07.521Z,12.48
2023-03-11T04:03:35.371Z,11.40
2023-03-11T04:06:24.243Z,14.23
2023-03-11T04:08:52.509Z,14.82
2023-03-11T04:11:19.564Z,16.17
2023-03-11T04:13:46.749Z,15.80
2023-03-11T04:16:19.841Z,18.65
2023-03-11T04:18:47.172Z,12.82
2023-03-11T04:21:14.242Z,17.42
2023-03-11T04:23:41.366Z,14.13
2023-03-11T04:26:08.234Z,18.58
2023-03-11T04:28:35.014Z,14.02
2023-03-11T04:31:02.095Z,15.57
2023-03-11T04:33:28.904Z,13.80
2023-03-11T04:35:55.954Z,15.73
2023-03-11T04:38:22.923Z,14.73
2023-03-11T04:40:49.828Z,14.52
2023-03-11T04:43:16.677Z,10.70
2023-03-11T04:45:43.463Z,10.40
2023-03-11T04:48:10.285Z,13.00
2023-03-11T04:50:37.135Z,15.05
2023-03-11T04:53:03.991Z,13.40
2023-03-11T04:55:30.869Z,12.32
2023-03-11T04:57:57.616Z,15.32
2023-03-11T05:00:25.304Z,11.68
2023-03-11T05:02:52.411Z,16.55
2023-03-11T05:05:22.318Z,11.80
2023-03-11T05:07:49.169Z,12.43
2023-03-11T05:10:22.444Z,13.18
2023-03-11T05:12:50.734Z,12.15
2023-03-11T05:15:18.191Z,12.65
2023-03-11T05:17:45.493Z,8.15
2023-03-11T05:20:12.755Z,12.20
2023-03-11T05:22:39.825Z,10.48
2023-03-11T05:25:07.484Z,11.82
2023-03-11T05:27:34.242Z,13.95
2023-03-11T05:30:01.030Z,11.20
2023-03-11T05:32:28.051Z,13.73
2023-03-11T05:34:54.922Z,10.05
2023-03-11T05:37:21.766Z,9.50
2023-03-11T05:39:48.729Z,10.35
2023-03-11T05:42:15.594Z,9.77
2023-03-11T05:44:43.044Z,9.15
2023-03-11T05:47:10.125Z,9.13
2023-03-11T05:49:37.148Z,12.13
2023-03-11T05:52:04.138Z,8.32
2023-03-11T05:54:31.130Z,10.52
2023-03-11T05:56:58.026Z,10.90
2023-03-11T05:59:24.845Z,8.43
2023-03-11T06:01:51.589Z,7.82
2023-03-11T06:04:18.491Z,10.07
2023-03-11T06:06:45.326Z,12.77
2023-03-11T06:09:16.080Z,9.32
2023-03-11T06:11:43.941Z,9.60
2023-03-11T06:14:14.712Z,7.18
2023-03-11T06:16:42.222Z,5.38
2023-03-11T06:19:09.663Z,9.18
2023-03-11T06:21:36.816Z,5.85
2023-03-11T06:24:03.809Z,8.18
2023-03-11T06:26:30.724Z,9.63
2023-03-11T06:28:57.547Z,5.65
2023-03-11T06:31:27.274Z,8.32
2023-03-11T06:33:56.019Z,7.78
2023-03-11T06:36:23.530Z,5.65
2023-03-11T06:38:52.509Z,3.65
2023-03-11T06:41:19.313Z,5.68
2023-03-11T06:43:46.186Z,6.80
2023-03-11T06:46:21.538Z,4.15
2023-03-11T06:48:52.239Z,3.63
2023-03-11T06:51:20.828Z,6.45
2023-03-11T06:53:52.957Z,5.88
2023-03-11T06:56:22.030Z,7.22
2023-03-11T06:58:49.487Z,5.47
2023-03-11T07:01:19.429Z,4.20
2023-03-11T07:03:47.772Z,5.43
2023-03-11T07:06:17.082Z,6.90
2023-03-11T07:08:44.037Z,4.15
2023-03-11T07:11:14.734Z,5.93
2023-03-11T07:13:41.896Z,3.70
2023-03-11T07:16:15.723Z,3.50
2023-03-11T07:18:46.204Z,3.75
2023-03-11T07:21:16.440Z,7.53
2023-03-11T07:23:43.451Z,5.38
2023-03-11T07:26:11.789Z,5.88
2023-03-11T07:28:39.348Z,5.30
2023-03-11T07:31:21.227Z,3.95
2023-03-11T07:33:48.063Z,6.50
2023-03-11T07:36:17.553Z,5.15
2023-03-11T07:38:44.776Z,4.57
2023-03-11T07:41:12.855Z,6.05
2023-03-11T07:43:41.319Z,5.20
2023-03-11T07:46:18.879Z,6.15
2023-03-11T07:48:46.028Z,6.90
2023-03-11T07:51:18.621Z,6.00
2023-03-11T07:53:46.484Z,5.40
2023-03-11T07:56:14.968Z,9.35
2023-03-11T07:58:45.172Z,6.82
2023-03-11T08:01:17.855Z,6.15
2023-03-11T08:03:46.571Z,5.22
2023-03-11T08:06:15.322Z,6.20
2023-03-11T08:08:42.752Z,6.10
2023-03-11T08:11:10.141Z,5.95
2023-03-11T08:13:36.990Z,5.93
2023-03-11T08:16:05.379Z,7.22
2023-03-11T08:18:32.612Z,6.25
2023-03-11T08:20:59.707Z,10.55
2023-03-11T08:23:26.472Z,6.43
2023-03-11T08:25:53.219Z,6.75
2023-03-11T08:28:20.017Z,7.22
2023-03-11T08:30:46.859Z,7.55
2023-03-11T08:33:13.774Z,7.18
2023-03-11T08:35:40.765Z,7.30
2023-03-11T08:38:07.759Z,7.72
2023-03-11T08:40:34.680Z,7.18
2023-03-11T08:43:01.446Z,6.40
2023-03-11T08:45:28.207Z,7.85
2023-03-11T08:47:55.027Z,6.75
2023-03-11T08:50:21.962Z,9.05
2023-03-11T08:52:48.871Z,9.80
2023-03-11T08:55:18.682Z,6.32
2023-03-11T08:57:45.488Z,8.57
2023-03-11T09:00:13.467Z,7.35
2023-03-11T09:02:41.770Z,9.25
2023-03-11T09:05:09.662Z,6.63
2023-03-11T09:07:36.624Z,7.40
2023-03-11T09:10:04.440Z,6.20
2023-03-11T09:12:31.284Z,6.75
2023-03-11T09:14:58.071Z,7.28
2023-03-11T09:17:24.963Z,7.40
2023-03-11T09:19:51.806Z,6.45
2023-03-11T09:22:18.676Z,5.75
2023-03-11T09:24:45.394Z,5.20
2023-03-11T09:27:13.338Z,4.90
2023-03-11T09:29:40.154Z,3.75
2023-03-11T09:32:07.129Z,5.00
2023-03-11T09:34:34.188Z,5.63
2023-03-11T09:37:01.634Z,4.53
2023-03-11T09:39:28.441Z,4.28
2023-03-11T09:44:51.798Z,5.07
2023-03-11T09:47:38.175Z,6.50
2023-03-11T09:50:22.644Z,7.97
2023-03-11T09:53:24.631Z,8.10
2023-03-11T09:56:05.745Z,7.35
2023-03-11T09:58:52.538Z,6.32
2023-03-11T10:01:35.372Z,13.60
2023-03-11T10:04:26.882Z,16.58
2023-03-11T10:06:53.978Z,15.82
2023-03-11T10:09:46.898Z,17.63
2023-03-11T10:12:22.576Z,21.45
2023-03-11T10:15:08.929Z,20.42
2023-03-11T10:17:51.077Z,20.42
2023-03-11T10:20:42.116Z,20.13
2023-03-11T10:23:14.365Z,24.80
2023-03-11T10:26:13.188Z,20.02
2023-03-11T10:28:46.608Z,22.48
2023-03-11T10:31:31.825Z,28.05
2023-03-11T10:34:04.228Z,16.48
2023-03-11T10:36:57.216Z,14.07
2023-03-11T10:39:25.538Z,13.65
2023-03-11T10:42:02.104Z,7.97
2023-03-11T10:44:34.169Z,14.27
2023-03-11T10:47:01.881Z,7.35
2023-03-11T10:49:29.240Z,7.20
2023-03-11T10:51:57.294Z,6.43
2023-03-11T10:54:31.494Z,9.10
2023-03-11T10:57:33.138Z,6.10
2023-03-11T11:00:02.475Z,4.47
2023-03-11T11:02:31.715Z,3.83
2023-03-11T11:05:22.784Z,3.00
2023-03-11T11:07:53.211Z,4.20
2023-03-11T11:10:25.211Z,4.60
2023-03-11T11:13:14.140Z,4.38
2023-03-11T11:15:50.710Z,7.63
2023-03-11T11:18:22.498Z,6.28
2023-03-11T11:21:01.398Z,5.70
2023-03-11T11:23:32.543Z,4.75
2023-03-11T11:26:02.339Z,4.68
2023-03-11T11:28:29.096Z,2.92
2023-03-11T11:31:00.234Z,6.85
2023-03-11T11:33:31.478Z,3.42
2023-03-11T11:36:02.667Z,3.10
2023-03-11T11:38:31.401Z,2.70
2023-03-11T11:41:02.394Z,2.90
2023-03-11T11:43:52.421Z,2.63
2023-03-11T11:46:31.416Z,2.03
2023-03-11T11:49:21.875Z,2.05
2023-03-11T11:51:57.519Z,1.85
2023-03-11T11:54:39.084Z,1.83
2023-03-11T11:57:17.210Z,2.40
2023-03-11T11:59:44.985Z,1.95
2023-03-11T12:02:33.550Z,3.03
2023-03-11T12:05:27.506Z,2.00
2023-03-11T12:08:12.773Z,2.60
2023-03-11T12:10:48.846Z,1.70
2023-03-11T12:13:36.893Z,2.88
2023-03-11T12:16:36.124Z,3.10
2023-03-11T12:19:19.133Z,2.90
2023-03-11T12:21:45.853Z,3.45
2023-03-11T12:24:27.661Z,3.80
2023-03-11T12:26:59.091Z,2.65
2023-03-11T12:29:36.692Z,2.88
2023-03-11T12:32:04.033Z,3.10
2023-03-11T12:34:34.357Z,2.90
2023-03-11T12:37:05.107Z,3.78
2023-03-11T12:39:33.842Z,3.35
2023-03-11T12:42:22.950Z,5.00
2023-03-11T12:44:51.062Z,4.05
2023-03-11T12:47:28.810Z,5.00
2023-03-11T12:50:16.288Z,4.50
2023-03-11T12:52:54.368Z,4.88
2023-03-11T12:55:31.446Z,4.00
2023-03-11T12:58:26.093Z,4.15
2023-03-11T13:01:11.113Z,2.50
2023-03-11T13:04:13.463Z,3.40
2023-03-11T13:06:43.301Z,2.80
2023-03-11T13:09:17.589Z,4.78
2023-03-11T13:11:46.421Z,4.90
2023-03-11T13:14:31.318Z,3.25
2023-03-11T13:17:26.499Z,3.38
2023-03-11T13:19:55.591Z,5.55
2023-03-11T13:22:42.787Z,4.10
2023-03-11T13:25:33.323Z,2.90
2023-03-11T13:28:23.493Z,3.85
2023-03-11T13:31:20.053Z,3.75
2023-03-11T13:33:52.993Z,3.90
2023-03-11T13:36:41.189Z,2.17
2023-03-11T13:39:29.333Z,4.30
2023-03-11T13:41:56.640Z,3.17
2023-03-11T13:44:31.713Z,4.57
2023-03-11T13:47:19.868Z,3.60
2023-03-11T13:50:06.904Z,3.40
2023-03-11T13:52:44.277Z,2.25
2023-03-11T13:55:23.495Z,4.60
2023-03-11T13:57:53.131Z,3.50
2023-03-11T14:00:24.321Z,4.00
2023-03-11T14:02:55.440Z,3.88
2023-03-11T14:05:29.322Z,6.13
2023-03-11T14:08:13.132Z,8.02
2023-03-11T14:10:40.359Z,6.00
2023-03-11T14:13:18.516Z,3.55
2023-03-11T14:15:54.230Z,2.92
2023-03-11T14:18:41.159Z,6.20
2023-03-11T14:21:20.250Z,3.95
2023-03-11T14:23:49.542Z,4.47
2023-03-11T14:26:31.892Z,7.93
2023-03-11T14:29:01.722Z,4.20
2023-03-11T14:31:34.352Z,3.30
2023-03-11T14:34:10.498Z,3.75
2023-03-11T14:36:54.338Z,3.80
2023-03-11T14:39:35.810Z,8.05
2023-03-11T14:42:18.789Z,5.30
2023-03-11T14:45:01.937Z,4.47
2023-03-11T14:47:47.131Z,5.97
2023-03-11T14:50:22.171Z,4.00
2023-03-11T14:52:59.150Z,6.07
2023-03-11T14:55:36.460Z,6.30
2023-03-11T14:58:19.692Z,3.30
2023-03-11T15:00:51.657Z,2.75
2023-03-11T15:03:31.055Z,4.78
2023-03-11T15:06:07.055Z,2.15
2023-03-11T15:08:44.909Z,6.20
2023-03-11T15:11:14.661Z,2.35
2023-03-11T15:13:44.218Z,2.20
2023-03-11T15:16:31.850Z,6.88
2023-03-11T15:19:29.733Z,3.20
2023-03-11T15:21:59.721Z,3.22
2023-03-11T15:24:29.334Z,2.40
2023-03-11T15:27:06.014Z,3.22
2023-03-11T15:29:34.617Z,3.25
2023-03-11T15:32:30.409Z,3.05
2023-03-11T15:35:14.406Z,6.63
2023-03-11T15:37:42.106Z,2.05
2023-03-11T15:40:26.122Z,2.50
2023-03-11T15:43:15.235Z,2.70
2023-03-11T15:45:43.486Z,2.00
2023-03-11T15:48:11.508Z,2.15
2023-03-11T15:50:54.720Z,1.70
2023-03-11T15:53:23.284Z,1.90
2023-03-11T15:55:50.850Z,3.30
2023-03-11T15:58:19.315Z,2.35
2023-03-11T16:00:51.533Z,2.85
2023-03-11T16:03:19.485Z,3.35
2023-03-11T16:05:46.931Z,1.60
2023-03-11T16:08:13.981Z,1.88
2023-03-11T16:10:41.007Z,1.52
2023-03-11T16:13:12.151Z,1.65
2023-03-11T16:15:39.142Z,2.72
2023-03-11T16:18:10.366Z,2.05
2023-03-11T16:20:49.855Z,3.47
2023-03-11T16:23:21.330Z,2.08
2023-03-11T16:25:48.928Z,1.67
2023-03-11T16:28:17.385Z,2.47
2023-03-11T16:30:44.445Z,3.05
2023-03-11T16:33:11.399Z,2.15
2023-03-11T16:35:38.434Z,2.85
2023-03-11T16:38:06.773Z,1.48
2023-03-11T16:40:33.667Z,1.73
2023-03-11T16:43:05.670Z,3.35
2023-03-11T16:45:33.149Z,1.90
2023-03-11T16:48:00.308Z,2.25
2023-03-11T16:50:27.663Z,3.10
2023-03-11T16:52:55.970Z,3.67
2023-03-11T16:55:24.283Z,5.15
2023-03-11T16:57:51.189Z,4.22
2023-03-11T17:00:18.315Z,4.85
2023-03-11T17:02:45.281Z,2.50
2023-03-11T17:05:12.349Z,1.60
2023-03-11T17:07:40.063Z,1.45
2023-03-11T17:10:08.446Z,4.50
2023-03-11T17:12:36.192Z,2.38
2023-03-11T17:15:05.181Z,1.65
2023-03-11T17:17:31.964Z,2.80
2023-03-11T17:19:58.812Z,3.13
2023-03-11T17:22:25.618Z,1.67
2023-03-11T17:24:52.489Z,9.82
2023-03-11T17:27:19.422Z,4.93
2023-03-11T17:29:46.293Z,4.38
2023-03-11T17:32:17.377Z,2.38
2023-03-11T17:34:44.456Z,3.67
2023-03-11T17:37:11.318Z,2.53
2023-03-11T17:39:38.104Z,2.92
2023-03-11T17:42:05.147Z,2.47
2023-03-11T17:44:48.326Z,2.47
2023-03-11T17:47:19.921Z,4.13
2023-03-11T17:49:47.757Z,3.17
2023-03-11T17:52:14.860Z,4.07
2023-03-11T17:54:41.612Z,2.40
2023-03-11T17:57:08.443Z,2.70
2023-03-11T17:59:35.495Z,1.70
2023-03-11T18:02:02.361Z,2.55
2023-03-11T18:04:29.404Z,2.58
2023-03-11T18:06:56.546Z,2.15
2023-03-11T18:09:23.487Z,3.72
2023-03-11T18:11:50.376Z,3.05
2023-03-11T18:14:17.188Z,2.65
2023-03-11T18:16:44.024Z,2.88
2023-03-11T18:19:10.861Z,3.33
2023-03-11T18:21:37.803Z,4.63
2023-03-11T18:24:04.873Z,2.30
2023-03-11T18:26:31.716Z,2.28
2023-03-11T18:29:00.354Z,2.60
2023-03-11T18:31:28.938Z,3.97
2023-03-11T18:34:01.797Z,4.68
2023-03-11T18:36:34.023Z,4.88
2023-03-11T18:39:02.062Z,2.30
2023-03-11T18:41:32.426Z,4.15
2023-03-11T18:43:59.674Z,3.83
2023-03-11T18:46:29.406Z,2.35
2023-03-11T18:48:59.927Z,2.08
2023-03-11T18:51:28.773Z,2.33
2023-03-11T18:53:55.820Z,1.88
2023-03-11T18:56:22.907Z,2.83
2023-03-11T18:58:49.688Z,3.10
2023-03-11T19:01:19.234Z,2.30
2023-03-11T19:03:50.515Z,1.98
2023-03-11T19:06:17.495Z,4.68
2023-03-11T19:08:44.956Z,2.97
2023-03-11T19:11:15.116Z,2.17
2023-03-11T19:13:47.142Z,2.55
2023-03-11T19:16:16.682Z,3.30
2023-03-11T19:18:44.096Z,2.05
2023-03-11T19:21:13.006Z,7.10
2023-03-11T19:23:40.332Z,2.67
2023-03-11T19:26:07.854Z,2.55
2023-03-11T19:28:35.516Z,1.63
2023-03-11T19:31:02.683Z,2.97
2023-03-11T19:33:29.809Z,3.58
2023-03-11T19:36:02.022Z,3.60
2023-03-11T19:38:29.587Z,5.55
2023-03-11T19:41:05.707Z,1.80
2023-03-11T19:43:33.055Z,1.70
2023-03-11T19:45:59.943Z,4.35
2023-03-11T19:48:26.885Z,5.97
2023-03-11T19:50:54.193Z,3.00
2023-03-11T19:53:22.924Z,4.72
2023-03-11T19:55:55.150Z,3.92
2023-03-11T19:58:23.939Z,2.53
2023-03-11T20:00:51.534Z,4.28
2023-03-11T20:03:19.184Z,2.78
2023-03-11T20:05:47.420Z,3.47
2023-03-11T20:08:17.451Z,3.10
2023-03-11T20:10:47.353Z,6.35
2023-03-11T20:13:15.142Z,2.88
2023-03-11T20:15:41.969Z,2.65
2023-03-11T20:18:09.094Z,2.22
2023-03-11T20:20:38.546Z,3.72
2023-03-11T20:23:05.763Z,2.22
2023-03-11T20:25:33.070Z,3.83
2023-03-11T20:28:01.105Z,4.03
2023-03-11T20:30:28.849Z,4.10
2023-03-11T20:32:55.893Z,2.75
2023-03-11T20:35:23.278Z,6.43
2023-03-11T20:37:50.450Z,2.25
2023-03-11T20:40:18.529Z,5.63
2023-03-11T20:42:47.303Z,3.80
2023-03-11T20:45:16.337Z,6.03
2023-03-11T20:47:44.650Z,6.50
2023-03-11T20:50:12.988Z,6.18
2023-03-11T20:52:39.940Z,5.03
2023-03-11T20:55:08.568Z,5.22
2023-03-11T20:57:36.126Z,3.58
2023-03-11T21:00:10.851Z,4.97
2023-03-11T21:02:45.092Z,6.25
2023-03-11T21:05:12.673Z,4.50
2023-03-11T21:07:40.312Z,7.43
2023-03-11T21:10:10.588Z,3.17
2023-03-11T21:12:37.943Z,4.07
2023-03-11T21:15:05.667Z,6.65
2023-03-11T21:17:34.050Z,5.40
2023-03-11T21:20:01.062Z,7.72
2023-03-11T21:22:27.924Z,3.53
2023-03-11T21:24:55.414Z,9.88
2023-03-11T21:27:26.502Z,6.88
2023-03-11T21:29:58.597Z,5.30
2023-03-11T21:32:26.799Z,5.65
2023-03-11T21:34:58.845Z,7.78
2023-03-11T21:37:26.863Z,3.00
2023-03-11T21:39:53.917Z,6.28
2023-03-11T21:42:20.955Z,3.25
2023-03-11T21:44:48.063Z,6.60
2023-03-11T21:47:14.920Z,5.50
2023-03-11T21:49:41.759Z,7.95
2023-03-11T21:52:08.505Z,5.35
2023-03-11T21:54:35.328Z,9.88
2023-03-11T21:57:02.191Z,6.95
2023-03-11T21:59:30.779Z,5.72
2023-03-11T22:02:01.413Z,7.78
2023-03-11T22:04:29.234Z,5.53
2023-03-11T22:06:57.438Z,5.85
2023-03-11T22:09:25.886Z,7.35
2023-03-11T22:11:53.138Z,7.00
2023-03-11T22:14:20.210Z,5.15
2023-03-11T22:16:47.237Z,4.40
2023-03-11T22:19:14.078Z,5.10
2023-03-11T22:21:40.994Z,3.95
2023-03-11T22:24:07.869Z,4.43
2023-03-11T22:26:34.832Z,3.58
2023-03-11T22:29:03.865Z,7.28
2023-03-11T22:31:31.027Z,8.25
2023-03-11T22:33:57.836Z,6.07
2023-03-11T22:36:24.718Z,4.05
2023-03-11T22:38:51.511Z,3.95
2023-03-11T22:41:19.685Z,5.60
2023-03-11T22:43:47.133Z,4.47
2023-03-11T22:46:14.083Z,4.78
2023-03-11T22:48:41.035Z,5.45
2023-03-11T22:51:07.941Z,7.10
2023-03-11T22:53:34.907Z,4.40
2023-03-11T22:56:07.391Z,3.85
2023-03-11T22:58:34.100Z,4.15
2023-03-11T23:01:01.095Z,7.45
2023-03-11T23:03:27.971Z,4.30
2023-03-11T23:05:57.671Z,3.58
2023-03-11T23:08:24.459Z,4.90
2023-03-11T23:10:51.272Z,3.55
2023-03-11T23:13:18.604Z,6.30
2023-03-11T23:15:47.189Z,5.10
2023-03-11T23:18:15.540Z,3.45
2023-03-11T23:20:42.897Z,4.57
2023-03-11T23:23:10.987Z,4.93
2023-03-11T23:25:38.797Z,4.40
2023-03-11T23:28:06.720Z,4.65
2023-03-11T23:30:33.675Z,7.03
2023-03-11T23:33:02.973Z,8.65
2023-03-11T23:35:31.029Z,3.22
2023-03-11T23:37:57.948Z,11.27
2023-03-11T23:40:25.177Z,8.55
2023-03-11T23:42:51.991Z,4.18
2023-03-11T23:45:18.945Z,3.88
2023-03-11T23:47:45.727Z,5.57
2023-03-11T23:50:12.576Z,9.25
2023-03-11T23:52:39.366Z,4.20
2023-03-11T23:55:06.676Z,4.85
2023-03-11T23:57:38.044Z,8.75
